sensor_id;sensor_type;location;lat;lon;timestamp;pressure;altitude;pressure_sealevel;temperature;humidity
8286;BME280;4181;43.416;24.598;2023-09-08T00:00:50;100618.19;;;19.39;100.00
8286;BME280;4181;43.416;24.598;2023-09-08T00:03:15;100609.38;;;19.37;100.00
8286;BME280;4181;43.416;24.598;2023-09-08T00:05:41;100602.06;;;19.46;100.00
8286;BME280;4181;43.416;24.598;2023-09-08T00:08:07;100606.16;;;19.48;100.00
8286;BME280;4181;43.416;24.598;2023-09-08T00:10:32;100615.66;;;19.61;100.00
8286;BME280;4181;43.416;24.598;2023-09-08T00:12:58;100622.75;;;19.48;100.00
8286;BME280;4181;43.416;24.598;2023-09-08T00:15:23;100619.22;;;19.43;100.00
8286;BME280;4181;43.416;24.598;2023-09-08T00:17:49;100623.06;;;19.47;100.00
8286;BME280;4181;43.416;24.598;2023-09-08T00:20:14;100633.19;;;19.33;100.00
8286;BME280;4181;43.416;24.598;2023-09-08T00:22:40;100622.19;;;19.28;100.00
8286;BME280;4181;43.416;24.598;2023-09-08T00:25:06;100621.72;;;19.21;100.00
8286;BME280;4181;43.416;24.598;2023-09-08T00:27:32;100618.03;;;18.83;100.00
8286;BME280;4181;43.416;24.598;2023-09-08T00:29:58;100616.50;;;18.96;100.00
8286;BME280;4181;43.416;24.598;2023-09-08T00:32:23;100605.69;;;18.99;100.00
8286;BME280;4181;43.416;24.598;2023-09-08T00:34:49;100610.31;;;19.04;100.00
8286;BME280;4181;43.416;24.598;2023-09-08T00:37:14;100610.31;;;19.04;100.00
8286;BME280;4181;43.416;24.598;2023-09-08T00:39:39;100601.38;;;19.12;100.00
8286;BME280;4181;43.416;24.598;2023-09-08T00:42:06;100606.28;;;19.15;100.00
8286;BME280;4181;43.416;24.598;2023-09-08T00:44:32;100601.22;;;19.22;100.00
8286;BME280;4181;43.416;24.598;2023-09-08T00:46:58;100605.13;;;19.21;100.00
8286;BME280;4181;43.416;24.598;2023-09-08T00:49:23;100604.44;;;19.34;100.00
8286;BME280;4181;43.416;24.598;2023-09-08T00:54:56;100611.59;;;19.35;100.00
8286;BME280;4181;43.416;24.598;2023-09-08T00:57:22;100618.88;;;19.49;100.00
8286;BME280;4181;43.416;24.598;2023-09-08T00:59:47;100620.75;;;19.54;100.00
8286;BME280;4181;43.416;24.598;2023-09-08T01:02:13;100625.91;;;19.60;100.00
8286;BME280;4181;43.416;24.598;2023-09-08T01:04:38;100615.97;;;19.17;100.00
8286;BME280;4181;43.416;24.598;2023-09-08T01:07:06;100620.44;;;19.37;100.00
8286;BME280;4181;43.416;24.598;2023-09-08T01:09:31;100615.75;;;19.56;100.00
8286;BME280;4181;43.416;24.598;2023-09-08T01:11:57;100616.56;;;19.75;100.00
8286;BME280;4181;43.416;24.598;2023-09-08T01:14:27;100615.50;;;19.89;100.00
8286;BME280;4181;43.416;24.598;2023-09-08T01:16:52;100615.03;;;20.01;100.00
8286;BME280;4181;43.416;24.598;2023-09-08T01:19:19;100603.06;;;20.05;100.00
8286;BME280;4181;43.416;24.598;2023-09-08T01:25:18;100611.63;;;19.72;100.00
8286;BME280;4181;43.416;24.598;2023-09-08T01:27:55;100606.22;;;19.62;100.00
8286;BME280;4181;43.416;24.598;2023-09-08T01:30:25;100609.81;;;19.81;100.00
8286;BME280;4181;43.416;24.598;2023-09-08T01:32:53;100610.56;;;19.86;100.00
8286;BME280;4181;43.416;24.598;2023-09-08T01:35:19;100609.06;;;19.57;100.00
8286;BME280;4181;43.416;24.598;2023-09-08T01:37:47;100605.25;;;19.34;100.00
8286;BME280;4181;43.416;24.598;2023-09-08T01:40:13;100608.69;;;19.45;100.00
8286;BME280;4181;43.416;24.598;2023-09-08T01:42:39;100602.84;;;19.28;100.00
8286;BME280;4181;43.416;24.598;2023-09-08T01:45:05;100599.19;;;19.09;100.00
8286;BME280;4181;43.416;24.598;2023-09-08T01:47:32;100604.63;;;18.95;100.00
8286;BME280;4181;43.416;24.598;2023-09-08T01:49:57;100609.38;;;19.13;100.00
8286;BME280;4181;43.416;24.598;2023-09-08T01:52:23;100611.47;;;19.21;100.00
8286;BME280;4181;43.416;24.598;2023-09-08T01:54:49;100611.03;;;18.90;100.00
8286;BME280;4181;43.416;24.598;2023-09-08T01:57:15;100609.03;;;18.72;100.00
8286;BME280;4181;43.416;24.598;2023-09-08T01:59:40;100601.00;;;18.71;100.00
8286;BME280;4181;43.416;24.598;2023-09-08T02:02:06;100597.94;;;18.77;100.00
8286;BME280;4181;43.416;24.598;2023-09-08T02:04:32;100590.19;;;18.74;100.00
8286;BME280;4181;43.416;24.598;2023-09-08T02:06:58;100600.31;;;18.60;100.00
8286;BME280;4181;43.416;24.598;2023-09-08T02:09:33;100599.84;;;18.77;100.00
8286;BME280;4181;43.416;24.598;2023-09-08T02:12:00;100594.44;;;18.67;100.00
8286;BME280;4181;43.416;24.598;2023-09-08T02:14:25;100601.97;;;18.61;100.00
8286;BME280;4181;43.416;24.598;2023-09-08T02:16:51;100596.53;;;18.51;100.00
8286;BME280;4181;43.416;24.598;2023-09-08T02:19:16;100599.50;;;18.60;100.00
8286;BME280;4181;43.416;24.598;2023-09-08T02:21:42;100586.50;;;18.32;100.00
8286;BME280;4181;43.416;24.598;2023-09-08T02:24:07;100576.44;;;18.46;100.00
8286;BME280;4181;43.416;24.598;2023-09-08T02:26:33;100590.31;;;18.64;100.00
8286;BME280;4181;43.416;24.598;2023-09-08T02:28:59;100586.81;;;18.82;100.00
8286;BME280;4181;43.416;24.598;2023-09-08T02:31:26;100588.78;;;19.01;100.00
8286;BME280;4181;43.416;24.598;2023-09-08T02:33:52;100590.91;;;19.09;100.00
8286;BME280;4181;43.416;24.598;2023-09-08T02:36:17;100597.09;;;19.01;100.00
8286;BME280;4181;43.416;24.598;2023-09-08T02:38:43;100592.78;;;18.89;100.00
8286;BME280;4181;43.416;24.598;2023-09-08T02:41:08;100595.03;;;18.87;100.00
8286;BME280;4181;43.416;24.598;2023-09-08T02:43:33;100596.19;;;18.81;100.00
8286;BME280;4181;43.416;24.598;2023-09-08T02:45:59;100587.56;;;18.88;100.00
8286;BME280;4181;43.416;24.598;2023-09-08T02:48:24;100596.19;;;18.81;100.00
8286;BME280;4181;43.416;24.598;2023-09-08T02:50:50;100580.03;;;18.93;100.00
8286;BME280;4181;43.416;24.598;2023-09-08T02:53:15;100586.91;;;18.96;100.00
8286;BME280;4181;43.416;24.598;2023-09-08T02:55:41;100584.16;;;18.72;100.00
8286;BME280;4181;43.416;24.598;2023-09-08T02:58:06;100584.31;;;18.81;100.00
8286;BME280;4181;43.416;24.598;2023-09-08T03:00:32;100572.44;;;18.80;100.00
8286;BME280;4181;43.416;24.598;2023-09-08T03:02:57;100576.25;;;18.84;100.00
8286;BME280;4181;43.416;24.598;2023-09-08T03:05:23;100578.22;;;18.84;100.00
8286;BME280;4181;43.416;24.598;2023-09-08T03:07:48;100578.78;;;18.81;100.00
8286;BME280;4181;43.416;24.598;2023-09-08T03:10:14;100582.81;;;18.41;100.00
8286;BME280;4181;43.416;24.598;2023-09-08T03:12:39;100581.91;;;18.51;100.00
8286;BME280;4181;43.416;24.598;2023-09-08T03:15:06;100578.69;;;18.44;100.00
8286;BME280;4181;43.416;24.598;2023-09-08T03:17:31;100572.03;;;18.45;100.00
8286;BME280;4181;43.416;24.598;2023-09-08T03:19:57;100570.28;;;18.54;100.00
8286;BME280;4181;43.416;24.598;2023-09-08T03:22:22;100574.25;;;18.38;100.00
8286;BME280;4181;43.416;24.598;2023-09-08T03:24:50;100565.78;;;18.29;100.00
8286;BME280;4181;43.416;24.598;2023-09-08T03:27:15;100574.50;;;18.13;100.00
8286;BME280;4181;43.416;24.598;2023-09-08T03:29:40;100563.50;;;18.08;100.00
8286;BME280;4181;43.416;24.598;2023-09-08T03:32:06;100557.53;;;18.24;100.00
8286;BME280;4181;43.416;24.598;2023-09-08T03:34:31;100555.50;;;18.35;100.00
8286;BME280;4181;43.416;24.598;2023-09-08T03:36:57;100546.19;;;18.31;100.00
8286;BME280;4181;43.416;24.598;2023-09-08T03:39:22;100559.41;;;18.05;100.00
8286;BME280;4181;43.416;24.598;2023-09-08T03:41:48;100551.97;;;18.29;100.00
8286;BME280;4181;43.416;24.598;2023-09-08T03:44:13;100565.97;;;18.43;100.00
8286;BME280;4181;43.416;24.598;2023-09-08T03:46:38;100556.47;;;18.54;100.00
8286;BME280;4181;43.416;24.598;2023-09-08T03:49:04;100564.81;;;18.72;100.00
8286;BME280;4181;43.416;24.598;2023-09-08T03:51:29;100566.31;;;18.83;100.00
8286;BME280;4181;43.416;24.598;2023-09-08T03:53:55;100572.31;;;18.90;100.00
8286;BME280;4181;43.416;24.598;2023-09-08T03:56:20;100572.16;;;18.82;100.00
8286;BME280;4181;43.416;24.598;2023-09-08T03:58:47;100569.38;;;18.82;100.00
8286;BME280;4181;43.416;24.598;2023-09-08T04:01:12;100582.31;;;18.63;100.00
8286;BME280;4181;43.416;24.598;2023-09-08T04:03:38;100587.16;;;18.52;100.00
8286;BME280;4181;43.416;24.598;2023-09-08T04:06:03;100584.44;;;18.47;100.00
8286;BME280;4181;43.416;24.598;2023-09-08T04:08:29;100583.59;;;18.47;100.00
8286;BME280;4181;43.416;24.598;2023-09-08T04:10:54;100587.03;;;18.62;100.00
8286;BME280;4181;43.416;24.598;2023-09-08T04:13:19;100581.50;;;18.62;100.00
8286;BME280;4181;43.416;24.598;2023-09-08T04:15:45;100585.63;;;18.65;100.00
8286;BME280;4181;43.416;24.598;2023-09-08T04:18:10;100577.22;;;18.75;100.00
8286;BME280;4181;43.416;24.598;2023-09-08T04:20:36;100585.25;;;18.95;100.00
8286;BME280;4181;43.416;24.598;2023-09-08T04:23:01;100584.28;;;19.05;100.00
8286;BME280;4181;43.416;24.598;2023-09-08T04:25:27;100592.41;;;19.20;100.00
8286;BME280;4181;43.416;24.598;2023-09-08T04:27:52;100589.69;;;19.38;100.00
8286;BME280;4181;43.416;24.598;2023-09-08T04:30:18;100603.09;;;19.50;100.00
8286;BME280;4181;43.416;24.598;2023-09-08T04:32:43;100604.13;;;19.54;100.00
8286;BME280;4181;43.416;24.598;2023-09-08T04:35:09;100616.56;;;19.75;100.00
8286;BME280;4181;43.416;24.598;2023-09-08T04:37:35;100617.69;;;19.92;100.00
8286;BME280;4181;43.416;24.598;2023-09-08T04:40:02;100617.13;;;20.09;100.00
8286;BME280;4181;43.416;24.598;2023-09-08T04:42:28;100619.28;;;20.12;100.00
8286;BME280;4181;43.416;24.598;2023-09-08T04:44:54;100622.06;;;20.12;100.00
8286;BME280;4181;43.416;24.598;2023-09-08T04:47:20;100631.16;;;20.18;100.00
8286;BME280;4181;43.416;24.598;2023-09-08T04:49:45;100625.84;;;20.35;100.00
8286;BME280;4181;43.416;24.598;2023-09-08T04:52:11;100625.28;;;20.51;100.00
8286;BME280;4181;43.416;24.598;2023-09-08T04:54:37;100629.22;;;20.77;100.00
8286;BME280;4181;43.416;24.598;2023-09-08T04:57:03;100636.41;;;20.92;100.00
8286;BME280;4181;43.416;24.598;2023-09-08T04:59:28;100630.59;;;21.07;100.00
8286;BME280;4181;43.416;24.598;2023-09-08T05:01:54;100625.56;;;21.22;100.00
8286;BME280;4181;43.416;24.598;2023-09-08T05:04:19;100634.56;;;21.42;100.00
8286;BME280;4181;43.416;24.598;2023-09-08T05:06:45;100629.72;;;21.61;100.00
8286;BME280;4181;43.416;24.598;2023-09-08T05:09:10;100635.09;;;21.93;100.00
8286;BME280;4181;43.416;24.598;2023-09-08T05:11:36;100638.38;;;22.17;100.00
8286;BME280;4181;43.416;24.598;2023-09-08T05:14:02;100644.22;;;22.29;100.00
8286;BME280;4181;43.416;24.598;2023-09-08T05:16:27;100647.31;;;22.27;100.00
8286;BME280;4181;43.416;24.598;2023-09-08T05:19:05;100644.78;;;22.39;100.00
8286;BME280;4181;43.416;24.598;2023-09-08T05:21:31;100645.22;;;22.33;100.00
8286;BME280;4181;43.416;24.598;2023-09-08T05:23:57;100654.56;;;22.37;100.00
8286;BME280;4181;43.416;24.598;2023-09-08T05:26:23;100640.25;;;22.52;100.00
8286;BME280;4181;43.416;24.598;2023-09-08T05:28:48;100644.84;;;22.79;100.00
8286;BME280;4181;43.416;24.598;2023-09-08T05:31:14;100640.09;;;23.10;100.00
8286;BME280;4181;43.416;24.598;2023-09-08T05:33:39;100632.53;;;23.41;100.00
8286;BME280;4181;43.416;24.598;2023-09-08T05:36:05;100626.19;;;23.74;100.00
8286;BME280;4181;43.416;24.598;2023-09-08T05:38:30;100622.94;;;24.07;100.00
8286;BME280;4181;43.416;24.598;2023-09-08T05:40:56;100639.97;;;24.14;100.00
8286;BME280;4181;43.416;24.598;2023-09-08T05:43:24;100634.41;;;24.05;100.00
8286;BME280;4181;43.416;24.598;2023-09-08T05:45:50;100635.69;;;23.91;100.00
8286;BME280;4181;43.416;24.598;2023-09-08T05:48:15;100638.81;;;23.80;100.00
8286;BME280;4181;43.416;24.598;2023-09-08T05:50:41;100631.94;;;24.12;100.00
8286;BME280;4181;43.416;24.598;2023-09-08T05:53:07;100627.94;;;24.47;100.00
8286;BME280;4181;43.416;24.598;2023-09-08T05:55:32;100625.09;;;24.81;100.00
8286;BME280;4181;43.416;24.598;2023-09-08T05:57:58;100627.84;;;24.98;100.00
8286;BME280;4181;43.416;24.598;2023-09-08T06:00:23;100617.25;;;25.13;100.00
8286;BME280;4181;43.416;24.598;2023-09-08T06:02:48;100615.78;;;25.15;100.00
8286;BME280;4181;43.416;24.598;2023-09-08T06:05:14;100618.44;;;25.03;100.00
8286;BME280;4181;43.416;24.598;2023-09-08T06:07:39;100622.69;;;25.09;100.00
8286;BME280;4181;43.416;24.598;2023-09-08T06:10:05;100619.41;;;25.45;100.00
8286;BME280;4181;43.416;24.598;2023-09-08T06:12:31;100622.03;;;25.70;100.00
8286;BME280;4181;43.416;24.598;2023-09-08T06:14:56;100614.22;;;25.96;100.00
8286;BME280;4181;43.416;24.598;2023-09-08T06:17:22;100608.97;;;26.15;100.00
8286;BME280;4181;43.416;24.598;2023-09-08T06:19:47;100615.94;;;26.30;100.00
8286;BME280;4181;43.416;24.598;2023-09-08T06:22:13;100613.75;;;26.48;100.00
8286;BME280;4181;43.416;24.598;2023-09-08T06:24:38;100602.72;;;26.63;100.00
8286;BME280;4181;43.416;24.598;2023-09-08T06:27:04;100594.84;;;26.89;100.00
8286;BME280;4181;43.416;24.598;2023-09-08T06:29:29;100608.53;;;27.03;100.00
8286;BME280;4181;43.416;24.598;2023-09-08T06:31:55;100587.63;;;27.24;100.00
8286;BME280;4181;43.416;24.598;2023-09-08T06:34:20;100598.25;;;27.43;100.00
8286;BME280;4181;43.416;24.598;2023-09-08T06:36:48;100587.84;;;27.56;100.00
8286;BME280;4181;43.416;24.598;2023-09-08T06:39:13;100594.59;;;27.67;100.00
8286;BME280;4181;43.416;24.598;2023-09-08T06:41:38;100596.47;;;27.63;100.00
8286;BME280;4181;43.416;24.598;2023-09-08T06:44:05;100603.13;;;27.70;100.00
8286;BME280;4181;43.416;24.598;2023-09-08T06:46:32;100597.94;;;27.84;100.00
8286;BME280;4181;43.416;24.598;2023-09-08T06:48:57;100601.34;;;27.78;100.00
8286;BME280;4181;43.416;24.598;2023-09-08T06:51:23;100600.31;;;27.70;100.00
8286;BME280;4181;43.416;24.598;2023-09-08T06:53:55;100618.75;;;27.71;100.00
8286;BME280;4181;43.416;24.598;2023-09-08T06:56:25;100604.75;;;27.71;100.00
8286;BME280;4181;43.416;24.598;2023-09-08T06:58:50;100606.94;;;27.78;100.00
8286;BME280;4181;43.416;24.598;2023-09-08T07:01:17;100606.81;;;27.98;100.00
8286;BME280;4181;43.416;24.598;2023-09-08T07:03:42;100605.28;;;28.28;100.00
8286;BME280;4181;43.416;24.598;2023-09-08T07:06:08;100605.16;;;28.52;100.00
8286;BME280;4181;43.416;24.598;2023-09-08T07:08:33;100605.56;;;28.67;100.00
8286;BME280;4181;43.416;24.598;2023-09-08T07:10:59;100613.16;;;28.50;100.00
8286;BME280;4181;43.416;24.598;2023-09-08T07:13:24;100616.97;;;28.30;100.00
8286;BME280;4181;43.416;24.598;2023-09-08T07:15:50;100613.34;;;28.30;100.00
8286;BME280;4181;43.416;24.598;2023-09-08T07:18:15;100615.38;;;28.45;100.00
8286;BME280;4181;43.416;24.598;2023-09-08T07:20:41;100604.28;;;28.80;100.00
8286;BME280;4181;43.416;24.598;2023-09-08T07:23:06;100597.16;;;28.82;100.00
8286;BME280;4181;43.416;24.598;2023-09-08T07:25:32;100599.66;;;29.03;100.00
8286;BME280;4181;43.416;24.598;2023-09-08T07:27:57;100602.59;;;28.91;100.00
8286;BME280;4181;43.416;24.598;2023-09-08T07:30:23;100610.19;;;28.59;100.00
8286;BME280;4181;43.416;24.598;2023-09-08T07:32:48;100604.03;;;28.69;100.00
8286;BME280;4181;43.416;24.598;2023-09-08T07:35:14;100602.22;;;28.92;100.00
8286;BME280;4181;43.416;24.598;2023-09-08T07:37:41;100601.69;;;29.18;100.00
8286;BME280;4181;43.416;24.598;2023-09-08T07:40:09;100612.00;;;28.98;100.00
8286;BME280;4181;43.416;24.598;2023-09-08T07:42:34;100599.22;;;29.32;100.00
8286;BME280;4181;43.416;24.598;2023-09-08T07:45:00;100597.94;;;29.29;100.00
8286;BME280;4181;43.416;24.598;2023-09-08T07:47:25;100596.63;;;29.58;100.00
8286;BME280;4181;43.416;24.598;2023-09-08T07:49:51;100595.97;;;29.64;100.00
8286;BME280;4181;43.416;24.598;2023-09-08T07:52:16;100584.47;;;29.89;100.00
8286;BME280;4181;43.416;24.598;2023-09-08T07:54:42;100589.16;;;30.19;100.00
8286;BME280;4181;43.416;24.598;2023-09-08T07:57:07;100592.41;;;30.02;100.00
8286;BME280;4181;43.416;24.598;2023-09-08T07:59:33;100589.94;;;29.82;100.00
8286;BME280;4181;43.416;24.598;2023-09-08T08:01:58;100607.72;;;29.51;100.00
8286;BME280;4181;43.416;24.598;2023-09-08T08:04:24;100615.91;;;29.09;100.00
8286;BME280;4181;43.416;24.598;2023-09-08T08:06:49;100602.66;;;29.41;100.00
8286;BME280;4181;43.416;24.598;2023-09-08T08:09:15;100615.69;;;28.71;100.00
8286;BME280;4181;43.416;24.598;2023-09-08T08:11:40;100619.66;;;28.54;100.00
8286;BME280;4181;43.416;24.598;2023-09-08T08:14:06;100608.00;;;28.68;100.00
8286;BME280;4181;43.416;24.598;2023-09-08T08:16:31;100611.50;;;28.49;100.00
8286;BME280;4181;43.416;24.598;2023-09-08T08:18:56;100612.09;;;28.71;100.00
8286;BME280;4181;43.416;24.598;2023-09-08T08:21:22;100605.38;;;28.75;100.00
8286;BME280;4181;43.416;24.598;2023-09-08T08:23:48;100618.88;;;28.54;100.00
8286;BME280;4181;43.416;24.598;2023-09-08T08:26:14;100612.91;;;28.55;100.00
8286;BME280;4181;43.416;24.598;2023-09-08T08:28:39;100615.06;;;28.62;100.00
8286;BME280;4181;43.416;24.598;2023-09-08T08:31:05;100612.78;;;28.68;100.00
8286;BME280;4181;43.416;24.598;2023-09-08T08:33:30;100611.19;;;28.67;100.00
8286;BME280;4181;43.416;24.598;2023-09-08T08:35:56;100608.53;;;28.58;100.00
8286;BME280;4181;43.416;24.598;2023-09-08T08:38:21;100618.75;;;28.23;100.00
8286;BME280;4181;43.416;24.598;2023-09-08T08:40:47;100610.63;;;28.33;100.00
8286;BME280;4181;43.416;24.598;2023-09-08T08:43:13;100621.59;;;28.11;100.00
8286;BME280;4181;43.416;24.598;2023-09-08T08:45:39;100614.66;;;28.48;100.00
8286;BME280;4181;43.416;24.598;2023-09-08T08:48:05;100603.28;;;28.56;100.00
8286;BME280;4181;43.416;24.598;2023-09-08T08:50:34;100611.81;;;28.76;100.00
8286;BME280;4181;43.416;24.598;2023-09-08T08:52:59;100598.69;;;28.80;100.00
8286;BME280;4181;43.416;24.598;2023-09-08T08:55:29;100584.13;;;29.21;100.00
8286;BME280;4181;43.416;24.598;2023-09-08T08:58:00;100589.81;;;29.59;100.00
8286;BME280;4181;43.416;24.598;2023-09-08T09:00:28;100589.19;;;29.50;100.00
8286;BME280;4181;43.416;24.598;2023-09-08T09:02:54;100586.38;;;29.50;100.00
8286;BME280;4181;43.416;24.598;2023-09-08T09:05:21;100582.00;;;29.68;100.00
8286;BME280;4181;43.416;24.598;2023-09-08T09:07:48;100584.94;;;29.56;100.00
8286;BME280;4181;43.416;24.598;2023-09-08T09:10:14;100594.50;;;29.36;100.00
8286;BME280;4181;43.416;24.598;2023-09-08T09:12:40;100591.25;;;29.18;100.00
8286;BME280;4181;43.416;24.598;2023-09-08T09:15:06;100583.94;;;29.14;100.00
8286;BME280;4181;43.416;24.598;2023-09-08T09:17:36;100581.50;;;29.47;100.00
8286;BME280;4181;43.416;24.598;2023-09-08T09:20:18;100578.03;;;29.88;100.00
8286;BME280;4181;43.416;24.598;2023-09-08T09:22:46;100573.44;;;29.80;100.00
8286;BME280;4181;43.416;24.598;2023-09-08T09:25:23;100577.94;;;29.85;100.00
8286;BME280;4181;43.416;24.598;2023-09-08T09:27:52;100583.84;;;29.26;100.00
8286;BME280;4181;43.416;24.598;2023-09-08T09:30:18;100584.22;;;29.09;100.00
8286;BME280;4181;43.416;24.598;2023-09-08T09:32:44;100583.28;;;28.74;100.00
8286;BME280;4181;43.416;24.598;2023-09-08T09:35:09;100571.19;;;29.35;100.00
8286;BME280;4181;43.416;24.598;2023-09-08T09:37:35;100564.84;;;29.73;100.00
8286;BME280;4181;43.416;24.598;2023-09-08T09:40:01;100563.16;;;29.88;100.00
8286;BME280;4181;43.416;24.598;2023-09-08T09:42:29;100561.75;;;29.97;100.00
8286;BME280;4181;43.416;24.598;2023-09-08T09:44:55;100556.97;;;30.20;100.00
8286;BME280;4181;43.416;24.598;2023-09-08T09:47:21;100563.13;;;30.07;100.00
8286;BME280;4181;43.416;24.598;2023-09-08T09:49:48;100549.75;;;30.19;100.00
8286;BME280;4181;43.416;24.598;2023-09-08T09:52:20;100534.19;;;30.48;100.00
8286;BME280;4181;43.416;24.598;2023-09-08T09:54:45;100551.78;;;30.41;100.00
8286;BME280;4181;43.416;24.598;2023-09-08T09:57:13;100550.19;;;30.02;100.00
8286;BME280;4181;43.416;24.598;2023-09-08T09:59:40;100545.44;;;30.25;100.00
8286;BME280;4181;43.416;24.598;2023-09-08T10:02:12;100539.72;;;30.22;100.00
8286;BME280;4181;43.416;24.598;2023-09-08T10:04:42;100531.38;;;30.70;100.00
8286;BME280;4181;43.416;24.598;2023-09-08T10:07:09;100527.91;;;31.03;100.00
8286;BME280;4181;43.416;24.598;2023-09-08T10:09:37;100522.72;;;31.05;100.00
8286;BME280;4181;43.416;24.598;2023-09-08T10:12:04;100516.19;;;30.98;100.00
8286;BME280;4181;43.416;24.598;2023-09-08T10:14:31;100512.13;;;31.21;100.00
8286;BME280;4181;43.416;24.598;2023-09-08T10:16:59;100530.44;;;30.63;100.00
8286;BME280;4181;43.416;24.598;2023-09-08T10:19:27;100532.41;;;30.17;100.00
8286;BME280;4181;43.416;24.598;2023-09-08T10:21:55;100531.44;;;30.10;100.00
8286;BME280;4181;43.416;24.598;2023-09-08T10:24:26;100552.13;;;29.79;100.00
8286;BME280;4181;43.416;24.598;2023-09-08T10:27:08;100535.31;;;29.83;100.00
8286;BME280;4181;43.416;24.598;2023-09-08T10:29:35;100524.00;;;29.79;100.00
8286;BME280;4181;43.416;24.598;2023-09-08T10:32:01;100516.28;;;29.95;100.00
8286;BME280;4181;43.416;24.598;2023-09-08T10:34:27;100532.47;;;29.63;100.00
8286;BME280;4181;43.416;24.598;2023-09-08T10:36:54;100538.72;;;29.38;100.00
8286;BME280;4181;43.416;24.598;2023-09-08T10:39:38;100529.84;;;29.55;100.00
8286;BME280;4181;43.416;24.598;2023-09-08T10:47:22;100523.56;;;29.61;100.00
8286;BME280;4181;43.416;24.598;2023-09-08T10:49:48;100512.59;;;29.72;100.00
8286;BME280;4181;43.416;24.598;2023-09-08T10:52:15;100513.38;;;30.11;100.00
8286;BME280;4181;43.416;24.598;2023-09-08T10:59:54;100489.41;;;30.20;100.00
8286;BME280;4181;43.416;24.598;2023-09-08T11:02:37;100487.22;;;30.29;100.00
8286;BME280;4181;43.416;24.598;2023-09-08T11:05:10;100504.38;;;29.83;100.00
8286;BME280;4181;43.416;24.598;2023-09-08T11:07:39;100501.75;;;29.55;100.00
8286;BME280;4181;43.416;24.598;2023-09-08T11:10:06;100489.63;;;29.70;100.00
8286;BME280;4181;43.416;24.598;2023-09-08T11:12:33;100483.97;;;30.08;100.00
8286;BME280;4181;43.416;24.598;2023-09-08T11:14:59;100483.78;;;30.39;100.00
8286;BME280;4181;43.416;24.598;2023-09-08T11:17:34;100474.16;;;30.66;100.00
8286;BME280;4181;43.416;24.598;2023-09-08T11:20:02;100456.22;;;31.01;100.00
8286;BME280;4181;43.416;24.598;2023-09-08T11:22:38;100466.97;;;30.69;100.00
8286;BME280;4181;43.416;24.598;2023-09-08T11:25:06;100487.38;;;29.98;100.00
8286;BME280;4181;43.416;24.598;2023-09-08T11:27:33;100479.69;;;29.57;100.00
8286;BME280;4181;43.416;24.598;2023-09-08T11:29:59;100482.81;;;29.71;100.00
8286;BME280;4181;43.416;24.598;2023-09-08T11:32:25;100477.19;;;29.71;100.00
8286;BME280;4181;43.416;24.598;2023-09-08T11:35:04;100478.50;;;29.58;100.00
8286;BME280;4181;43.416;24.598;2023-09-08T11:37:31;100461.81;;;30.07;100.00
8286;BME280;4181;43.416;24.598;2023-09-08T11:39:56;100449.88;;;30.58;100.00
8286;BME280;4181;43.416;24.598;2023-09-08T11:42:22;100436.59;;;30.81;100.00
8286;BME280;4181;43.416;24.598;2023-09-08T11:44:48;100444.50;;;30.72;100.00
8286;BME280;4181;43.416;24.598;2023-09-08T11:47:14;100447.25;;;30.46;100.00
8286;BME280;4181;43.416;24.598;2023-09-08T11:49:41;100444.69;;;30.38;100.00
8286;BME280;4181;43.416;24.598;2023-09-08T11:52:08;100448.25;;;30.12;100.00
8286;BME280;4181;43.416;24.598;2023-09-08T11:54:35;100447.13;;;30.17;100.00
8286;BME280;4181;43.416;24.598;2023-09-08T11:57:02;100436.69;;;30.40;100.00
8286;BME280;4181;43.416;24.598;2023-09-08T11:59:31;100436.19;;;30.12;100.00
8286;BME280;4181;43.416;24.598;2023-09-08T12:01:58;100431.00;;;30.36;100.00
8286;BME280;4181;43.416;24.598;2023-09-08T12:04:24;100409.91;;;30.75;100.00
8286;BME280;4181;43.416;24.598;2023-09-08T12:06:51;100409.63;;;31.10;100.00
8286;BME280;4181;43.416;24.598;2023-09-08T12:09:17;100407.25;;;31.12;100.00
8286;BME280;4181;43.416;24.598;2023-09-08T12:11:43;100387.22;;;31.21;100.00
8286;BME280;4181;43.416;24.598;2023-09-08T12:14:13;100386.38;;;31.46;100.00
8286;BME280;4181;43.416;24.598;2023-09-08T12:16:40;100386.00;;;31.51;100.00
8286;BME280;4181;43.416;24.598;2023-09-08T12:19:07;100382.00;;;31.52;100.00
8286;BME280;4181;43.416;24.598;2023-09-08T12:21:54;100374.06;;;31.65;100.00
8286;BME280;4181;43.416;24.598;2023-09-08T12:27:18;100401.22;;;30.35;100.00
8286;BME280;4181;43.416;24.598;2023-09-08T12:29:54;100412.47;;;29.90;100.00
8286;BME280;4181;43.416;24.598;2023-09-08T12:32:20;100408.06;;;29.51;100.00
8286;BME280;4181;43.416;24.598;2023-09-08T12:34:46;100409.47;;;29.41;100.00
8286;BME280;4181;43.416;24.598;2023-09-08T12:37:11;100407.53;;;29.45;100.00
8286;BME280;4181;43.416;24.598;2023-09-08T12:39:38;100417.03;;;29.37;100.00
8286;BME280;4181;43.416;24.598;2023-09-08T12:42:04;100417.59;;;28.93;100.00
8286;BME280;4181;43.416;24.598;2023-09-08T12:44:30;100418.97;;;28.99;100.00
8286;BME280;4181;43.416;24.598;2023-09-08T12:46:55;100415.31;;;28.64;100.00
8286;BME280;4181;43.416;24.598;2023-09-08T12:49:20;100404.19;;;28.67;100.00
8286;BME280;4181;43.416;24.598;2023-09-08T12:51:46;100403.50;;;28.89;100.00
8286;BME280;4181;43.416;24.598;2023-09-08T12:54:11;100424.25;;;28.85;100.00
8286;BME280;4181;43.416;24.598;2023-09-08T12:56:37;100402.22;;;28.87;100.00
8286;BME280;4181;43.416;24.598;2023-09-08T12:59:02;100396.78;;;28.94;100.00
8286;BME280;4181;43.416;24.598;2023-09-08T13:01:28;100386.69;;;29.27;100.00
8286;BME280;4181;43.416;24.598;2023-09-08T13:03:54;100404.06;;;29.33;100.00
8286;BME280;4181;43.416;24.598;2023-09-08T13:06:19;100391.84;;;29.44;100.00